Time;durP1;ratioP1;P1;durP2;ratioP2;P2;SDS_P1;SDS_P2;PMS_P1;PMS_P2;Temp;Humidity;BMP_temperature;BMP_pressure;BME280_temperature;BME280_humidity;BME280_pressure;Samples;Min_cycle;Max_cycle;Signal;HPM_P1;HPM_P2
2022/10/30 00:02:16;;;;;;;7.85;3.00;;;15.40;99.90;;;;;;5053870;28;20033;-74
2022/10/30 00:04:41;;;;;;;6.20;3.53;;;15.40;99.90;;;;;;5052424;28;20033;-74
2022/10/30 00:07:10;;;;;;;6.93;3.60;;;15.40;99.90;;;;;;5053540;28;20036;-73
2022/10/30 00:09:36;;;;;;;5.82;3.40;;;15.40;99.90;;;;;;5052359;28;20043;-74
2022/10/30 00:12:02;;;;;;;6.00;3.13;;;15.50;99.90;;;;;;5060150;28;20484;-74
2022/10/30 00:14:27;;;;;;;4.93;2.97;;;15.60;99.90;;;;;;5072215;28;20033;-74
2022/10/30 00:16:53;;;;;;;9.10;3.33;;;15.60;99.90;;;;;;5072476;28;20128;-74
2022/10/30 00:19:19;;;;;;;6.32;3.38;;;15.40;99.90;;;;;;5073438;28;20055;-73
2022/10/30 00:21:44;;;;;;;8.65;3.72;;;15.10;99.90;;;;;;5073485;28;20032;-74
2022/10/30 00:24:10;;;;;;;8.20;3.47;;;15.20;99.90;;;;;;5072959;28;20041;-74
2022/10/30 00:26:36;;;;;;;7.55;3.00;;;15.10;99.90;;;;;;5073260;28;20045;-74
2022/10/30 00:29:02;;;;;;;7.28;3.30;;;15.10;99.90;;;;;;5073316;28;20056;-73
2022/10/30 00:31:27;;;;;;;5.97;2.85;;;14.40;99.90;;;;;;5072173;28;20130;-73
2022/10/30 00:33:54;;;;;;;8.38;2.70;;;14.30;99.90;;;;;;5073016;28;20086;-73
2022/10/30 00:36:21;;;;;;;7.07;3.33;;;14.40;99.90;;;;;;5071678;28;20033;-75
2022/10/30 00:38:47;;;;;;;7.55;3.25;;;14.50;99.90;;;;;;5076512;28;20066;-73
2022/10/30 00:41:18;;;;;;;8.45;3.40;;;14.60;99.90;;;;;;5077190;28;20059;-73
2022/10/30 00:43:44;;;;;;;5.85;3.65;;;14.80;99.90;;;;;;5077121;28;20033;-73
2022/10/30 00:46:16;;;;;;;7.10;3.20;;;14.80;99.90;;;;;;5076950;28;20400;-74
2022/10/30 00:48:44;;;;;;;8.38;3.40;;;14.90;99.90;;;;;;5076017;28;20047;-73
2022/10/30 00:51:11;;;;;;;9.35;3.20;;;15.20;99.90;;;;;;5077120;28;20127;-73
2022/10/30 00:53:38;;;;;;;10.50;3.83;;;15.40;99.90;;;;;;5077005;28;20097;-74
2022/10/30 00:56:06;;;;;;;8.38;3.40;;;15.50;99.90;;;;;;5076626;28;20060;-74
2022/10/30 00:58:38;;;;;;;7.93;3.30;;;15.50;99.90;;;;;;5077031;28;20395;-74
2022/10/30 01:01:08;;;;;;;7.50;3.40;;;15.40;99.90;;;;;;5075461;28;20504;-73
2022/10/30 01:03:36;;;;;;;6.03;3.47;;;15.40;99.90;;;;;;5075691;28;20132;-73
2022/10/30 01:06:07;;;;;;;5.78;3.13;;;15.30;99.90;;;;;;5076505;28;20033;-73
2022/10/30 01:08:33;;;;;;;8.60;3.17;;;15.30;99.90;;;;;;5076471;28;20059;-74
2022/10/30 01:11:02;;;;;;;12.52;3.50;;;15.20;99.90;;;;;;5076514;28;20047;-74
2022/10/30 01:13:29;;;;;;;8.40;3.70;;;15.10;99.90;;;;;;5076628;28;20080;-73
2022/10/30 01:15:57;;;;;;;9.20;3.65;;;14.90;99.90;;;;;;5076589;28;20032;-73
2022/10/30 01:18:45;;;;;;;5.95;3.45;;;15.00;99.90;;;;;;5076561;28;20032;-73
2022/10/30 01:21:48;;;;;;;8.43;3.42;;;15.20;99.90;;;;;;5076444;28;20052;-73
2022/10/30 01:24:41;;;;;;;8.00;3.45;;;15.20;99.90;;;;;;5075921;28;20033;-74
2022/10/30 01:27:22;;;;;;;10.30;3.83;;;15.30;99.90;;;;;;5075931;28;20044;-73
2022/10/30 01:29:52;;;;;;;9.82;4.28;;;15.20;99.90;;;;;;5075969;28;20036;-73
2022/10/30 01:32:47;;;;;;;8.75;4.13;;;15.20;99.90;;;;;;5076003;28;20451;-74
2022/10/30 01:35:28;;;;;;;9.85;3.70;;;15.10;99.90;;;;;;5075913;28;20128;-73
2022/10/30 01:38:14;;;;;;;6.70;3.78;;;15.10;99.90;;;;;;5075980;28;20044;-74
2022/10/30 01:40:44;;;;;;;12.75;3.42;;;15.20;99.90;;;;;;5076293;28;20061;-74
2022/10/30 01:43:10;;;;;;;6.30;3.80;;;15.20;99.90;;;;;;5074492;28;20119;-74
2022/10/30 01:45:57;;;;;;;11.73;4.15;;;15.10;99.90;;;;;;5075895;28;20040;-74
2022/10/30 01:48:56;;;;;;;12.00;4.40;;;15.10;99.90;;;;;;5074579;28;20474;-74
2022/10/30 01:51:57;;;;;;;13.55;3.90;;;15.10;99.90;;;;;;5076029;28;20036;-73
2022/10/30 01:54:32;;;;;;;9.23;3.70;;;15.10;99.90;;;;;;5074607;28;20040;-74
2022/10/30 01:57:10;;;;;;;10.30;3.97;;;15.20;99.90;;;;;;5075779;28;20036;-74
2022/10/30 01:59:52;;;;;;;9.88;3.97;;;15.10;99.90;;;;;;5075521;28;20097;-74
2022/10/30 02:02:18;;;;;;;12.77;4.05;;;15.00;99.90;;;;;;5074300;28;20484;-73
2022/10/30 02:04:43;;;;;;;6.30;3.85;;;14.70;99.90;;;;;;5075430;28;20048;-73
2022/10/30 02:07:10;;;;;;;9.30;3.58;;;14.70;99.90;;;;;;5075572;28;20198;-73
2022/10/30 02:09:37;;;;;;;8.65;3.63;;;14.90;99.90;;;;;;5075650;28;20416;-73
2022/10/30 02:12:03;;;;;;;8.60;4.25;;;15.10;99.90;;;;;;5075526;28;20033;-73
2022/10/30 02:14:49;;;;;;;10.18;4.07;;;15.00;99.90;;;;;;5075437;28;20044;-73
2022/10/30 02:17:15;;;;;;;7.53;3.70;;;15.10;99.90;;;;;;5075052;28;20041;-74
2022/10/30 02:19:41;;;;;;;11.32;3.65;;;15.20;99.90;;;;;;5073885;28;20056;-74
2022/10/30 02:22:08;;;;;;;14.63;4.05;;;15.20;99.90;;;;;;5075342;28;20055;-74
2022/10/30 02:24:33;;;;;;;7.95;3.47;;;15.10;99.90;;;;;;5073879;28;20482;-74
2022/10/30 02:27:00;;;;;;;9.23;4.13;;;15.00;99.90;;;;;;5075015;28;20120;-74
2022/10/30 02:29:25;;;;;;;7.40;3.95;;;15.00;99.90;;;;;;5074026;28;20396;-73
2022/10/30 02:31:51;;;;;;;10.75;3.47;;;15.00;99.90;;;;;;5075031;28;20036;-73
2022/10/30 02:34:20;;;;;;;5.90;3.17;;;14.70;99.90;;;;;;5073841;28;20028;-74
2022/10/30 02:36:46;;;;;;;9.45;3.85;;;14.70;99.90;;;;;;5074936;28;20426;-74
2022/10/30 02:39:12;;;;;;;8.05;3.83;;;14.50;99.90;;;;;;5076658;28;20032;-73
2022/10/30 02:41:38;;;;;;;7.10;3.78;;;14.80;99.90;;;;;;5090159;28;20499;-74
2022/10/30 02:44:05;;;;;;;8.90;3.28;;;14.70;99.90;;;;;;5092783;28;20054;-73
2022/10/30 02:46:31;;;;;;;7.78;3.13;;;14.70;99.90;;;;;;5093475;28;20101;-73
2022/10/30 02:48:57;;;;;;;8.65;3.13;;;14.60;99.90;;;;;;5090306;28;20039;-75
2022/10/30 02:51:23;;;;;;;5.43;3.25;;;14.70;99.90;;;;;;5073443;28;20044;-73
2022/10/30 02:53:51;;;;;;;7.55;3.33;;;14.60;99.90;;;;;;5074259;28;20033;-73
2022/10/30 02:56:17;;;;;;;6.85;3.30;;;14.50;99.90;;;;;;5074181;28;20074;-73
2022/10/30 02:58:43;;;;;;;7.90;3.25;;;14.60;99.90;;;;;;5073845;28;20427;-73
2022/10/30 03:01:14;;;;;;;6.63;3.00;;;14.60;99.90;;;;;;5074292;28;20097;-75
2022/10/30 03:03:40;;;;;;;;;;;14.50;99.90;;;;;;5073247;28;20044;-73
2022/10/30 03:06:09;;;;;;;7.82;3.60;;;14.60;99.90;;;;;;5073954;28;20470;-74
2022/10/30 03:08:36;;;;;;;8.73;3.20;;;14.60;99.90;;;;;;5075431;28;20103;-74
2022/10/30 03:11:07;;;;;;;6.82;3.42;;;14.70;99.90;;;;;;5094269;28;20381;-74
2022/10/30 03:13:34;;;;;;;3.72;2.47;;;14.70;99.90;;;;;;5093190;28;20036;-75
2022/10/30 03:16:00;;;;;;;5.03;3.10;;;14.60;99.90;;;;;;5094534;28;20105;-74
2022/10/30 03:18:26;;;;;;;7.47;3.40;;;14.40;99.90;;;;;;5094143;28;20101;-73
2022/10/30 03:20:56;;;;;;;7.80;3.92;;;14.40;99.90;;;;;;5092830;28;20048;-73
2022/10/30 03:23:22;;;;;;;9.82;3.63;;;14.30;99.90;;;;;;5093047;28;20067;-73
2022/10/30 03:25:52;;;;;;;8.02;3.50;;;14.20;99.90;;;;;;5093336;28;20384;-73
2022/10/30 03:28:18;;;;;;;12.63;3.33;;;14.30;99.90;;;;;;5092788;28;20416;-73
2022/10/30 03:30:44;;;;;;;7.47;3.10;;;14.30;99.90;;;;;;5094207;28;20107;-73
2022/10/30 03:33:09;;;;;;;9.93;4.10;;;14.30;99.90;;;;;;5085607;28;20107;-72
2022/10/30 03:35:35;;;;;;;5.95;3.55;;;14.20;99.90;;;;;;5072440;28;20120;-73
2022/10/30 03:38:01;;;;;;;8.85;4.68;;;14.30;99.90;;;;;;5072341;28;20032;-73
2022/10/30 03:40:28;;;;;;;8.27;3.25;;;14.20;99.90;;;;;;5073604;28;20420;-72
2022/10/30 03:42:54;;;;;;;5.80;3.20;;;14.20;99.90;;;;;;5073774;28;20044;-73
2022/10/30 03:45:20;;;;;;;5.80;3.47;;;14.40;99.90;;;;;;5072618;28;20032;-73
2022/10/30 03:47:45;;;;;;;8.95;3.75;;;14.40;99.90;;;;;;5070480;28;20029;-73
2022/10/30 03:50:11;;;;;;;7.25;3.22;;;14.30;99.90;;;;;;5064148;28;20459;-72
2022/10/30 03:52:37;;;;;;;8.02;3.25;;;14.30;99.90;;;;;;5061051;28;20572;-73
2022/10/30 03:55:03;;;;;;;4.97;2.47;;;14.30;99.90;;;;;;5091667;28;20167;-73
2022/10/30 03:57:28;;;;;;;6.47;2.50;;;14.60;99.90;;;;;;5093767;28;20056;-73
2022/10/30 03:59:54;;;;;;;5.90;2.50;;;14.90;99.90;;;;;;5093435;28;20040;-75
2022/10/30 04:02:20;;;;;;;6.05;3.25;;;14.90;99.90;;;;;;5093541;28;20372;-73
2022/10/30 04:04:45;;;;;;;5.80;2.78;;;14.90;99.90;;;;;;5093869;28;20508;-73
2022/10/30 04:07:11;;;;;;;8.25;2.92;;;14.90;99.90;;;;;;5092758;28;20491;-73
2022/10/30 04:09:37;;;;;;;6.45;2.67;;;15.00;99.90;;;;;;5092425;28;20112;-74
2022/10/30 04:12:04;;;;;;;6.60;2.40;;;15.10;99.90;;;;;;5094279;28;20128;-74
2022/10/30 04:14:29;;;;;;;7.88;2.97;;;15.00;99.90;;;;;;5098015;28;20038;-74
2022/10/30 04:16:55;;;;;;;9.02;3.35;;;14.90;99.90;;;;;;5093636;28;20127;-74
2022/10/30 04:19:21;;;;;;;7.72;2.88;;;14.80;99.90;;;;;;5076304;28;20075;-74
2022/10/30 04:21:48;;;;;;;9.52;2.53;;;14.70;99.90;;;;;;5076437;28;20079;-74
2022/10/30 04:24:16;;;;;;;6.13;2.53;;;14.40;99.90;;;;;;5076129;28;20430;-73
2022/10/30 04:26:41;;;;;;;5.32;2.20;;;14.30;99.90;;;;;;5076149;28;20040;-73
2022/10/30 04:29:07;;;;;;;5.47;2.22;;;14.20;99.90;;;;;;5077238;28;20057;-74
2022/10/30 04:31:33;;;;;;;3.58;1.88;;;14.10;99.90;;;;;;5076876;28;20125;-74
2022/10/30 04:33:58;;;;;;;7.13;2.33;;;14.10;99.90;;;;;;5077230;28;20584;-73
2022/10/30 04:36:31;;;;;;;3.22;1.83;;;14.00;99.90;;;;;;5076246;28;20024;-73
2022/10/30 04:38:57;;;;;;;6.18;2.33;;;14.00;99.90;;;;;;5076219;28;20044;-74
2022/10/30 04:41:23;;;;;;;3.85;1.95;;;14.20;99.90;;;;;;5075812;28;20583;-73
2022/10/30 04:43:50;;;;;;;8.05;2.42;;;14.10;99.90;;;;;;5077252;28;20037;-73
2022/10/30 04:46:16;;;;;;;4.97;2.50;;;14.20;99.90;;;;;;5075878;28;20063;-73
2022/10/30 04:48:42;;;;;;;5.60;2.40;;;14.50;99.90;;;;;;5076980;28;20059;-73
2022/10/30 04:51:10;;;;;;;5.05;2.70;;;14.50;99.90;;;;;;5096404;28;20032;-73
2022/10/30 04:53:36;;;;;;;6.82;2.50;;;14.60;99.90;;;;;;5096986;28;20449;-75
2022/10/30 04:56:03;;;;;;;5.18;2.10;;;14.60;99.90;;;;;;5096957;28;20047;-73
2022/10/30 04:58:29;;;;;;;4.18;2.30;;;14.40;99.90;;;;;;5095612;28;20039;-73
2022/10/30 05:00:54;;;;;;;5.07;2.17;;;14.40;99.90;;;;;;5095691;28;20048;-73
2022/10/30 05:03:24;;;;;;;4.88;2.40;;;14.40;99.90;;;;;;5096041;28;20028;-72
2022/10/30 05:06:17;;;;;;;7.60;2.60;;;14.40;99.90;;;;;;5097059;28;20071;-73
2022/10/30 05:08:43;;;;;;;8.38;3.05;;;14.30;99.90;;;;;;5097059;28;20036;-73
2022/10/30 05:11:08;;;;;;;7.28;2.45;;;14.30;99.90;;;;;;5096969;28;20043;-75
2022/10/30 05:13:34;;;;;;;6.57;2.88;;;14.30;99.90;;;;;;5095300;28;20062;-73
2022/10/30 05:16:00;;;;;;;6.40;2.50;;;14.30;99.90;;;;;;5096453;28;20059;-75
2022/10/30 05:18:26;;;;;;;5.80;2.55;;;14.30;99.90;;;;;;5096203;28;20043;-73
2022/10/30 05:20:51;;;;;;;6.68;2.70;;;14.20;99.90;;;;;;5096143;28;20135;-73
2022/10/30 05:23:17;;;;;;;6.32;3.05;;;14.20;99.90;;;;;;5096066;28;20399;-73
2022/10/30 05:25:43;;;;;;;8.40;3.30;;;14.30;99.90;;;;;;5094690;28;20043;-74
2022/10/30 05:28:09;;;;;;;10.88;3.30;;;14.30;99.90;;;;;;5076959;28;20048;-73
2022/10/30 05:30:35;;;;;;;4.07;2.53;;;14.30;99.90;;;;;;5076242;28;20035;-74
2022/10/30 05:33:04;;;;;;;5.55;2.70;;;14.30;99.90;;;;;;5076101;28;20411;-75
2022/10/30 05:35:34;;;;;;;5.90;2.88;;;14.20;99.90;;;;;;5076151;28;20400;-73
2022/10/30 05:38:01;;;;;;;8.45;2.67;;;14.10;99.90;;;;;;5074732;28;20040;-73
2022/10/30 05:40:27;;;;;;;8.13;3.05;;;14.00;99.90;;;;;;5075971;28;20155;-73
2022/10/30 05:42:53;;;;;;;5.97;2.83;;;14.00;99.90;;;;;;5075946;28;20032;-74
2022/10/30 05:45:19;;;;;;;5.72;3.33;;;13.90;99.90;;;;;;5075570;28;20037;-72
2022/10/30 05:47:57;;;;;;;5.72;2.58;;;13.70;99.90;;;;;;5074132;28;20067;-73
2022/10/30 05:50:23;;;;;;;4.03;2.30;;;13.60;99.90;;;;;;5075400;28;20496;-74
2022/10/30 05:52:48;;;;;;;10.30;2.40;;;13.40;99.90;;;;;;5075618;28;20040;-74
2022/10/30 05:55:14;;;;;;;7.90;2.63;;;13.40;99.90;;;;;;5075788;28;20036;-74
2022/10/30 05:57:40;;;;;;;6.07;2.80;;;13.30;99.90;;;;;;5075547;28;20119;-73
2022/10/30 06:00:07;;;;;;;5.03;2.92;;;13.40;99.90;;;;;;5075362;28;20124;-73
2022/10/30 06:02:32;;;;;;;7.28;3.80;;;13.40;99.90;;;;;;5075542;28;20033;-74
2022/10/30 06:04:58;;;;;;;7.88;3.00;;;13.50;99.90;;;;;;5075506;28;20034;-74
2022/10/30 06:07:24;;;;;;;9.77;4.10;;;13.40;99.90;;;;;;5075438;28;20115;-74
2022/10/30 06:09:49;;;;;;;8.40;3.88;;;13.50;99.90;;;;;;5089003;28;20043;-74
2022/10/30 06:12:15;;;;;;;7.65;3.30;;;13.60;99.90;;;;;;5095717;28;20036;-74
2022/10/30 06:14:41;;;;;;;7.05;3.45;;;13.70;99.90;;;;;;5095561;28;20046;-74
2022/10/30 06:17:07;;;;;;;8.77;3.55;;;13.60;99.90;;;;;;5094243;28;20032;-74
2022/10/30 06:19:32;;;;;;;6.85;3.60;;;13.70;99.90;;;;;;5087792;28;20052;-74
2022/10/30 06:21:58;;;;;;;8.88;3.72;;;13.70;99.90;;;;;;5073999;28;20036;-74
2022/10/30 06:24:24;;;;;;;8.52;3.92;;;13.70;99.90;;;;;;5075022;28;20085;-74
2022/10/30 06:26:50;;;;;;;7.32;3.97;;;13.60;99.90;;;;;;5081111;28;20032;-73
2022/10/30 06:29:16;;;;;;;7.53;3.55;;;13.60;99.90;;;;;;5094877;28;20600;-74
2022/10/30 06:31:45;;;;;;;8.32;4.22;;;13.60;99.90;;;;;;5093658;28;20039;-74
2022/10/30 06:34:10;;;;;;;7.70;4.15;;;13.60;99.90;;;;;;5095317;28;20051;-74
2022/10/30 06:36:36;;;;;;;7.93;3.25;;;13.70;99.90;;;;;;5094987;28;20476;-73
2022/10/30 06:39:02;;;;;;;7.15;3.35;;;13.70;99.90;;;;;;5095213;28;20039;-73
2022/10/30 06:41:28;;;;;;;9.35;3.67;;;13.70;99.90;;;;;;5093284;28;20399;-74
2022/10/30 06:43:53;;;;;;;5.93;2.90;;;13.80;99.90;;;;;;5088598;28;20156;-73
2022/10/30 06:46:19;;;;;;;5.68;3.05;;;13.90;99.90;;;;;;5072946;28;20549;-73
2022/10/30 06:48:45;;;;;;;6.40;3.67;;;13.90;99.90;;;;;;5074689;28;20051;-73
2022/10/30 06:51:15;;;;;;;7.25;3.10;;;13.90;99.90;;;;;;5074786;28;20499;-73
2022/10/30 06:53:41;;;;;;;8.05;3.38;;;13.90;99.90;;;;;;5073088;28;20130;-74
2022/10/30 06:56:08;;;;;;;6.60;3.28;;;13.90;99.90;;;;;;5073443;28;20055;-73
2022/10/30 06:58:37;;;;;;;5.32;3.13;;;14.00;99.90;;;;;;5074489;28;20083;-74
2022/10/30 07:01:05;;;;;;;9.60;3.65;;;14.00;99.90;;;;;;5074400;28;20139;-74
2022/10/30 07:03:31;;;;;;;7.15;3.05;;;14.00;99.90;;;;;;5074644;28;20515;-75
2022/10/30 07:05:57;;;;;;;4.93;3.17;;;14.10;99.90;;;;;;5079471;28;20070;-74
2022/10/30 07:08:23;;;;;;;7.13;2.65;;;14.20;99.90;;;;;;5094814;28;20064;-73
2022/10/30 07:10:49;;;;;;;5.80;2.97;;;14.40;99.90;;;;;;5094672;28;20051;-74
2022/10/30 07:13:15;;;;;;;6.15;2.78;;;14.60;99.90;;;;;;5094556;28;20511;-72
2022/10/30 07:15:44;;;;;;;6.55;3.17;;;14.90;99.90;;;;;;5088534;28;20041;-73
2022/10/30 07:18:10;;;;;;;6.93;2.80;;;15.00;99.90;;;;;;5074110;28;20562;-74
2022/10/30 07:20:36;;;;;;;5.65;2.85;;;15.10;99.90;;;;;;5072740;28;20044;-73
2022/10/30 07:23:03;;;;;;;4.32;2.60;;;15.30;99.90;;;;;;5073838;28;20070;-75
2022/10/30 07:25:29;;;;;;;7.72;2.53;;;15.60;99.90;;;;;;5074023;28;20499;-73
2022/10/30 07:27:55;;;;;;;3.97;2.38;;;15.90;99.90;;;;;;5075082;28;20547;-74
2022/10/30 07:30:24;;;;;;;6.40;2.60;;;16.20;99.90;;;;;;5073511;28;20127;-74
2022/10/30 07:32:57;;;;;;;9.70;2.63;;;16.50;99.90;;;;;;5073600;28;20048;-74
2022/10/30 07:35:23;;;;;;;4.00;2.45;;;16.60;99.90;;;;;;5072636;28;20036;-75
2022/10/30 07:37:49;;;;;;;4.00;2.20;;;;;;;;;;5090496;28;20039;-75
2022/10/30 07:40:15;;;;;;;4.15;2.22;;;16.80;99.90;;;;;;5092168;28;20051;-74
2022/10/30 07:42:40;;;;;;;3.00;2.05;;;16.90;99.90;;;;;;5092529;28;20032;-74
2022/10/30 07:45:07;;;;;;;4.38;2.40;;;16.80;99.90;;;;;;5093653;28;20032;-74
2022/10/30 07:47:37;;;;;;;5.43;2.38;;;16.80;99.90;;;;;;5091999;28;20094;-73
2022/10/30 07:50:03;;;;;;;3.92;2.10;;;16.60;99.90;;;;;;5071994;28;20103;-74
2022/10/30 07:52:31;;;;;;;5.32;2.30;;;16.70;99.90;;;;;;5073441;28;20052;-74
2022/10/30 07:54:57;;;;;;;9.20;3.10;;;17.30;99.90;;;;;;5068929;28;20470;-74
2022/10/30 07:57:22;;;;;;;4.00;1.80;;;17.20;99.90;;;;;;5055716;28;20115;-74
2022/10/30 07:59:48;;;;;;;4.05;2.70;;;17.30;99.90;;;;;;5052750;28;20135;-74
2022/10/30 08:02:14;;;;;;;3.30;2.28;;;17.70;99.90;;;;;;5076464;28;20400;-74
2022/10/30 08:04:40;;;;;;;4.30;2.67;;;17.90;99.90;;;;;;5072139;28;20058;-74
2022/10/30 08:07:05;;;;;;;4.05;2.17;;;18.10;99.90;;;;;;5074169;28;20047;-74
2022/10/30 08:09:31;;;;;;;6.90;2.63;;;18.30;99.90;;;;;;5071791;28;20040;-74
2022/10/30 08:11:57;;;;;;;8.98;2.97;;;18.40;99.90;;;;;;5073201;28;20480;-75
2022/10/30 08:14:22;;;;;;;9.43;2.55;;;18.40;99.90;;;;;;5071854;28;20025;-75
2022/10/30 08:16:50;;;;;;;5.60;2.83;;;18.60;99.90;;;;;;5085802;28;20038;-75
2022/10/30 08:19:16;;;;;;;5.25;2.75;;;18.70;99.90;;;;;;5093694;28;20036;-74
2022/10/30 08:21:41;;;;;;;4.90;2.53;;;18.50;99.90;;;;;;5090543;28;20526;-74
2022/10/30 08:24:07;;;;;;;7.38;2.80;;;18.50;99.90;;;;;;5069942;28;20044;-74
2022/10/30 08:26:34;;;;;;;6.15;2.70;;;18.20;99.90;;;;;;5071093;28;20079;-74
2022/10/30 08:29:00;;;;;;;3.90;2.30;;;18.30;99.90;;;;;;5070011;28;20078;-74
2022/10/30 08:31:26;;;;;;;6.60;2.45;;;17.90;99.90;;;;;;5072538;28;20036;-74
2022/10/30 08:33:52;;;;;;;4.60;2.95;;;18.10;99.90;;;;;;5071453;28;20041;-74
2022/10/30 08:36:17;;;;;;;7.43;2.42;;;18.10;99.90;;;;;;5071432;28;20072;-75
2022/10/30 08:38:43;;;;;;;7.70;2.65;;;18.20;99.90;;;;;;5071512;28;20143;-75
2022/10/30 08:41:09;;;;;;;5.50;2.72;;;18.50;99.90;;;;;;5078685;28;20117;-74
2022/10/30 08:43:35;;;;;;;4.30;2.35;;;18.90;99.90;;;;;;5091553;28;20526;-74
2022/10/30 08:46:01;;;;;;;5.75;2.45;;;19.20;99.90;;;;;;5089924;28;20039;-74
2022/10/30 08:48:27;;;;;;;4.18;2.25;;;;;;;;;;5093242;28;20127;-74
2022/10/30 08:50:58;;;;;;;6.75;2.58;;;19.60;99.90;;;;;;5091065;28;20044;-74
2022/10/30 08:53:23;;;;;;;8.45;2.80;;;19.50;99.90;;;;;;5090688;28;20085;-74
2022/10/30 08:55:50;;;;;;;7.70;2.90;;;19.30;99.90;;;;;;5080850;28;20056;-74
2022/10/30 08:58:16;;;;;;;5.75;2.45;;;19.40;99.90;;;;;;5071992;28;20638;-74
2022/10/30 09:00:42;;;;;;;6.40;2.97;;;19.60;99.90;;;;;;5076951;28;20131;-74
2022/10/30 09:03:08;;;;;;;5.50;2.42;;;19.80;99.90;;;;;;5073167;28;20492;-74
2022/10/30 09:05:36;;;;;;;5.32;2.95;;;19.60;99.90;;;;;;5075727;28;20039;-74
2022/10/30 09:08:02;;;;;;;8.48;3.17;;;19.30;99.90;;;;;;5072526;28;20064;-72
2022/10/30 09:10:28;;;;;;;5.90;2.58;;;19.30;99.90;;;;;;5074121;28;20115;-73
2022/10/30 09:12:55;;;;;;;5.95;2.70;;;19.50;99.90;;;;;;5074365;28;20051;-74
2022/10/30 09:15:21;;;;;;;5.97;2.20;;;19.50;99.90;;;;;;5086211;28;20067;-73
2022/10/30 09:17:47;;;;;;;3.72;2.28;;;19.20;99.90;;;;;;5094502;28;20040;-73
2022/10/30 09:20:13;;;;;;;3.88;2.40;;;19.30;99.90;;;;;;5094803;28;20040;-74
2022/10/30 09:22:42;;;;;;;6.22;2.33;;;19.50;99.90;;;;;;5094159;28;20036;-73
2022/10/30 09:25:08;;;;;;;7.35;2.80;;;19.50;99.90;;;;;;5093926;28;20046;-73
2022/10/30 09:27:39;;;;;;;4.05;2.38;;;19.60;99.90;;;;;;5075485;28;20412;-73
2022/10/30 09:30:06;;;;;;;4.60;2.40;;;19.70;99.90;;;;;;5073252;28;20041;-73
2022/10/30 09:32:32;;;;;;;6.00;2.75;;;19.70;99.90;;;;;;5074811;28;20103;-73
2022/10/30 09:34:57;;;;;;;6.10;2.50;;;20.00;99.90;;;;;;5074758;28;20028;-73
2022/10/30 09:37:23;;;;;;;4.82;2.25;;;20.00;99.90;;;;;;5072216;28;20062;-73
2022/10/30 09:39:49;;;;;;;7.43;2.15;;;20.00;99.90;;;;;;5072050;28;20512;-73
2022/10/30 09:42:35;;;;;;;6.32;2.35;;;20.00;99.90;;;;;;5073690;28;20068;-73
2022/10/30 09:45:24;;;;;;;5.43;2.10;;;19.90;99.90;;;;;;5089785;28;20036;-74
2022/10/30 09:48:00;;;;;;;6.45;2.15;;;20.00;99.90;;;;;;5094584;28;20777;-73
2022/10/30 09:50:34;;;;;;;4.88;2.30;;;20.00;99.90;;;;;;5092069;28;20036;-73
2022/10/30 09:53:32;;;;;;;5.35;2.15;;;20.00;99.90;;;;;;5092919;28;20483;-73
2022/10/30 09:56:07;;;;;;;4.20;2.00;;;20.20;99.90;;;;;;5092583;28;20036;-73
2022/10/30 09:59:14;;;;;;;6.05;2.17;;;20.50;99.90;;;;;;5095566;28;20027;-73
2022/10/30 10:01:43;;;;;;;4.38;1.92;;;20.60;99.90;;;;;;5076918;28;20059;-73
2022/10/30 10:04:30;;;;;;;5.47;2.03;;;20.60;99.90;;;;;;5051901;28;20037;-73
2022/10/30 10:07:05;;;;;;;5.32;1.92;;;20.80;99.90;;;;;;5052038;28;20048;-73
2022/10/30 10:09:33;;;;;;;7.13;1.83;;;20.70;99.90;;;;;;5054326;28;20048;-73
2022/10/30 10:12:05;;;;;;;4.15;1.65;;;20.80;99.90;;;;;;5064434;28;20035;-76
2022/10/30 10:14:36;;;;;;;7.40;2.88;;;21.10;99.90;;;;;;5092412;28;20036;-75
2022/10/30 10:17:04;;;;;;;6.32;2.42;;;21.20;99.90;;;;;;5091918;28;20529;-75
2022/10/30 10:19:52;;;;;;;5.25;2.05;;;21.40;99.90;;;;;;5091186;28;20035;-75
2022/10/30 10:22:40;;;;;;;7.25;2.25;;;21.20;99.90;;;;;;5092763;28;20040;-76
2022/10/30 10:25:13;;;;;;;3.05;1.55;;;21.40;99.90;;;;;;5073905;28;20090;-77
2022/10/30 10:27:58;;;;;;;3.15;2.03;;;21.20;99.80;;;;;;5074151;28;20040;-75
2022/10/30 10:30:28;;;;;;;4.07;2.03;;;21.50;99.90;;;;;;5073330;28;20127;-76
2022/10/30 10:32:59;;;;;;;4.97;1.63;;;21.80;98.70;;;;;;5071907;28;20432;-76
2022/10/30 10:35:34;;;;;;;5.22;1.63;;;21.80;98.60;;;;;;5072664;28;20044;-76
2022/10/30 10:38:27;;;;;;;6.32;1.80;;;21.90;98.80;;;;;;5072122;28;20091;-76
2022/10/30 10:41:20;;;;;;;5.10;1.75;;;22.00;99.40;;;;;;5071330;28;20048;-77
2022/10/30 10:43:45;;;;;;;6.53;1.40;;;22.20;99.90;;;;;;5073064;28;20084;-77
2022/10/30 10:46:30;;;;;;;5.25;1.95;;;22.40;99.60;;;;;;5065328;28;20121;-77
2022/10/30 10:49:01;;;;;;;3.25;1.80;;;22.00;97.00;;;;;;5069417;28;20040;-77
2022/10/30 10:51:36;;;;;;;3.55;1.70;;;21.70;96.80;;;;;;5073855;28;20388;-76
2022/10/30 10:54:17;;;;;;;3.22;1.55;;;21.80;97.20;;;;;;5052306;28;20511;-77
2022/10/30 10:56:47;;;;;;;4.40;1.77;;;21.90;96.80;;;;;;5081890;28;20060;-77
2022/10/30 10:59:24;;;;;;;4.38;1.58;;;22.40;98.50;;;;;;5091617;28;20043;-77
2022/10/30 11:02:12;;;;;;;5.75;1.60;;;22.10;96.20;;;;;;5090596;28;20046;-77
2022/10/30 11:04:46;;;;;;;2.60;1.60;;;22.20;97.80;;;;;;5070248;28;20105;-77
2022/10/30 11:07:24;;;;;;;6.63;2.08;;;22.10;96.20;;;;;;5052297;28;20051;-78
2022/10/30 11:09:57;;;;;;;4.93;2.22;;;22.00;96.30;;;;;;5053305;28;20615;-78
2022/10/30 11:12:33;;;;;;;4.57;2.17;;;21.80;95.70;;;;;;5054058;28;20531;-78
2022/10/30 11:15:17;;;;;;;3.80;2.00;;;21.90;96.40;;;;;;5064306;28;20424;-77
2022/10/30 11:17:58;;;;;;;3.30;1.90;;;21.70;95.60;;;;;;5072449;28;20063;-77
2022/10/30 11:20:47;;;;;;;6.22;1.88;;;21.60;96.20;;;;;;5087596;28;20424;-77
2022/10/30 11:23:32;;;;;;;6.65;1.77;;;21.60;96.90;;;;;;5065896;28;20045;-78
2022/10/30 11:25:58;;;;;;;4.53;2.13;;;21.50;97.80;;;;;;5051102;28;20040;-77
2022/10/30 11:29:02;;;;;;;6.72;2.10;;;21.60;98.40;;;;;;5057478;28;20040;-77
2022/10/30 11:31:34;;;;;;;4.32;2.28;;;21.60;98.00;;;;;;5068149;28;20123;-77
2022/10/30 11:34:18;;;;;;;3.92;1.77;;;21.60;98.30;;;;;;5089459;28;20032;-75
2022/10/30 11:36:49;;;;;;;6.45;1.92;;;21.40;98.90;;;;;;5076006;28;20403;-76
2022/10/30 11:39:18;;;;;;;5.30;2.10;;;21.50;98.70;;;;;;5075930;28;20526;-75
2022/10/30 11:41:59;;;;;;;4.93;2.08;;;21.40;97.80;;;;;;5078893;28;20048;-75
2022/10/30 11:44:49;;;;;;;5.93;1.90;;;21.30;97.80;;;;;;5061542;28;20698;-75
2022/10/30 11:47:20;;;;;;;3.93;1.73;;;21.30;97.10;;;;;;5074154;28;20056;-76
2022/10/30 11:49:51;;;;;;;3.95;1.70;;;21.30;96.90;;;;;;5071249;28;20032;-77
2022/10/30 11:52:23;;;;;;;3.35;1.63;;;21.70;98.50;;;;;;5071745;28;20048;-75
2022/10/30 11:55:00;;;;;;;4.95;1.80;;;22.00;97.80;;;;;;5071486;28;20074;-75
2022/10/30 11:57:48;;;;;;;4.78;1.38;;;22.10;96.20;;;;;;5072718;28;20530;-76
2022/10/30 12:00:21;;;;;;;2.70;1.40;;;21.90;96.30;;;;;;5072972;28;20076;-78
2022/10/30 12:02:50;;;;;;;4.30;1.80;;;21.90;96.50;;;;;;5073382;28;20038;-78
2022/10/30 12:05:39;;;;;;;3.10;1.52;;;22.10;97.00;;;;;;5073873;28;20036;-77
2022/10/30 12:08:07;;;;;;;4.70;1.63;;;22.30;97.90;;;;;;5071810;28;20074;-79
2022/10/30 12:11:08;;;;;;;6.45;2.25;;;22.60;98.70;;;;;;5073493;28;20033;-79
2022/10/30 12:13:39;;;;;;;3.97;1.85;;;22.60;99.00;;;;;;5076395;28;20150;-78
2022/10/30 12:16:09;;;;;;;3.95;1.60;;;22.70;97.60;;;;;;5093910;28;20046;-78
2022/10/30 12:18:36;;;;;;;5.53;1.95;;;23.00;99.10;;;;;;5080812;28;20045;-78
2022/10/30 12:21:02;;;;;;;3.13;1.60;;;23.00;97.80;;;;;;5072973;28;20060;-77
2022/10/30 12:23:29;;;;;;;3.65;1.67;;;23.00;97.60;;;;;;5099681;28;20385;-76
2022/10/30 12:26:01;;;;;;;6.43;1.65;;;23.20;97.50;;;;;;5084782;28;20483;-78
2022/10/30 12:28:31;;;;;;;5.88;1.65;;;23.30;98.60;;;;;;5074352;28;20064;-77
2022/10/30 12:31:11;;;;;;;3.78;1.52;;;23.30;98.50;;;;;;5066976;28;20503;-77
2022/10/30 12:33:50;;;;;;;3.58;1.85;;;23.20;99.00;;;;;;5075525;28;20411;-76
2022/10/30 12:36:20;;;;;;;3.33;1.80;;;22.80;97.30;;;;;;5074751;28;20048;-76
2022/10/30 12:39:02;;;;;;;3.22;1.88;;;22.50;98.00;;;;;;5074627;28;20066;-76
2022/10/30 12:41:31;;;;;;;2.40;1.90;;;22.10;99.30;;;;;;5078269;28;20051;-76
2022/10/30 12:44:11;;;;;;;3.90;2.00;;;22.00;99.20;;;;;;5078343;28;20035;-76
2022/10/30 12:47:01;;;;;;;3.33;1.63;;;21.90;99.00;;;;;;5094760;28;20044;-77
2022/10/30 12:49:46;;;;;;;4.70;2.60;;;21.70;99.90;;;;;;5093935;28;20092;-76
2022/10/30 12:52:27;;;;;;;3.90;1.63;;;21.70;99.90;;;;;;5096699;28;20483;-76
2022/10/30 12:55:11;;;;;;;4.63;2.25;;;21.70;99.90;;;;;;5096155;28;20411;-77
2022/10/30 12:57:48;;;;;;;4.40;1.90;;;21.20;99.90;;;;;;5093815;28;20126;-79
2022/10/30 13:00:15;;;;;;;4.38;2.33;;;21.00;99.90;;;;;;5095576;28;20126;-76
2022/10/30 13:03:13;;;;;;;4.43;1.92;;;21.20;99.50;;;;;;5095411;28;20514;-77
2022/10/30 13:05:50;;;;;;;5.53;1.63;;;21.40;99.90;;;;;;5093583;28;20040;-79